Time;durP1;ratioP1;P1;durP2;ratioP2;P2;SDS_P1;SDS_P2;PMS_P1;PMS_P2;Temp;Humidity;BMP_temperature;BMP_pressure;BME280_temperature;BME280_humidity;BME280_pressure;Samples;Min_cycle;Max_cycle;Signal;HPM_P1;HPM_P2
2023/03/23 00:02:08;;;;;;;7.60;6.68;;;11.10;99.90;;;;;;5029588;28;20290;-77
2023/03/23 00:04:35;;;;;;;7.80;7.03;;;11.00;99.90;;;;;;5029505;28;20202;-81
2023/03/23 00:07:04;;;;;;;6.15;5.40;;;11.00;99.90;;;;;;5028608;28;20257;-77
2023/03/23 00:09:34;;;;;;;5.75;5.25;;;11.10;99.90;;;;;;5029427;28;20214;-81
2023/03/23 00:12:05;;;;;;;5.05;4.57;;;11.00;99.90;;;;;;5029312;28;20214;-77
2023/03/23 00:14:40;;;;;;;5.78;5.22;;;11.10;99.90;;;;;;5029229;28;20210;-78
2023/03/23 00:17:09;;;;;;;6.15;5.38;;;11.10;99.90;;;;;;5029314;28;20218;-77
2023/03/23 00:19:45;;;;;;;5.68;4.60;;;11.10;99.90;;;;;;5029049;28;20225;-82
2023/03/23 00:22:15;;;;;;;14.48;5.57;;;11.10;99.90;;;;;;5029642;28;20220;-82
2023/03/23 00:24:42;;;;;;;7.25;5.47;;;11.10;99.90;;;;;;5029458;28;20251;-82
2023/03/23 00:27:12;;;;;;;5.18;4.75;;;11.10;99.90;;;;;;5028998;28;20284;-82
2023/03/23 00:29:40;;;;;;;7.47;6.15;;;11.10;99.90;;;;;;5029196;28;20224;-82
2023/03/23 00:32:12;;;;;;;6.00;5.50;;;11.10;99.90;;;;;;5029057;28;20229;-82
2023/03/23 00:34:40;;;;;;;5.75;5.00;;;11.00;99.90;;;;;;5028635;28;20359;-82
2023/03/23 00:37:08;;;;;;;6.70;5.45;;;11.00;99.90;;;;;;5028934;28;20252;-82
2023/03/23 00:39:38;;;;;;;6.10;5.15;;;11.00;99.90;;;;;;5028096;28;20271;-82
2023/03/23 00:42:06;;;;;;;6.57;5.97;;;11.00;99.90;;;;;;5029393;28;20214;-77
2023/03/23 00:44:34;;;;;;;11.20;4.32;;;11.00;99.90;;;;;;5028895;28;20230;-82
2023/03/23 00:47:02;;;;;;;5.15;4.38;;;10.90;99.90;;;;;;5028563;28;20210;-82
2023/03/23 00:49:30;;;;;;;7.45;5.30;;;11.00;99.90;;;;;;5028886;28;20210;-83
2023/03/23 00:51:58;;;;;;;8.77;5.15;;;11.00;99.90;;;;;;5031275;28;20232;-83
2023/03/23 00:54:26;;;;;;;5.55;5.05;;;11.00;99.90;;;;;;5031574;28;20202;-83
2023/03/23 00:56:55;;;;;;;6.20;4.93;;;11.00;99.90;;;;;;5030929;28;20210;-83
2023/03/23 00:59:23;;;;;;;5.88;4.68;;;10.90;99.90;;;;;;5031064;28;20205;-83
2023/03/23 01:01:51;;;;;;;6.80;5.43;;;10.90;99.90;;;;;;5031290;28;20310;-83
2023/03/23 01:04:19;;;;;;;8.02;5.65;;;10.90;99.90;;;;;;5030854;28;20409;-79
2023/03/23 01:06:51;;;;;;;4.93;4.47;;;10.80;99.90;;;;;;5031074;28;20202;-79
2023/03/23 01:09:20;;;;;;;5.88;4.93;;;10.80;99.90;;;;;;5031306;28;20210;-79
2023/03/23 01:11:49;;;;;;;5.82;5.15;;;10.70;99.90;;;;;;5031406;28;20284;-79
2023/03/23 01:14:20;;;;;;;5.55;4.78;;;10.70;99.90;;;;;;5030964;28;20281;-79
2023/03/23 01:16:47;;;;;;;6.05;5.05;;;10.70;99.90;;;;;;5030504;28;20207;-79
2023/03/23 01:19:15;;;;;;;6.45;5.38;;;10.60;99.90;;;;;;5030921;28;20195;-79
2023/03/23 01:21:42;;;;;;;5.65;5.10;;;10.60;99.90;;;;;;5030963;28;20226;-79
2023/03/23 01:24:09;;;;;;;5.10;4.60;;;10.60;99.90;;;;;;5031105;28;20286;-79
2023/03/23 01:26:36;;;;;;;4.93;4.03;;;10.70;99.90;;;;;;5031093;28;20261;-79
2023/03/23 01:29:04;;;;;;;6.20;3.88;;;10.60;99.90;;;;;;5030753;28;20222;-78
2023/03/23 01:31:34;;;;;;;4.32;3.90;;;10.60;99.90;;;;;;5030603;28;20249;-77
2023/03/23 01:34:01;;;;;;;4.03;3.72;;;10.60;99.90;;;;;;5031296;28;20245;-77
2023/03/23 01:36:32;;;;;;;4.10;3.40;;;10.60;99.90;;;;;;5030893;28;20211;-79
2023/03/23 01:39:00;;;;;;;4.50;4.05;;;10.60;99.90;;;;;;5029480;28;20199;-79
2023/03/23 01:41:28;;;;;;;4.10;3.80;;;10.50;99.90;;;;;;5031099;28;20229;-79
2023/03/23 01:44:01;;;;;;;3.63;3.33;;;10.50;99.90;;;;;;5030918;28;20222;-79
2023/03/23 01:46:30;;;;;;;5.22;3.92;;;10.50;99.90;;;;;;5034364;28;20206;-83
2023/03/23 01:49:05;;;;;;;3.97;3.47;;;10.40;99.90;;;;;;5033959;28;20205;-83
2023/03/23 01:51:35;;;;;;;4.55;3.47;;;10.40;99.90;;;;;;5034508;28;20210;-79
2023/03/23 01:54:05;;;;;;;3.05;2.85;;;10.30;99.90;;;;;;5034511;28;20209;-79
2023/03/23 01:56:40;;;;;;;3.25;2.95;;;10.20;99.90;;;;;;5034428;28;20198;-79
2023/03/23 01:59:08;;;;;;;3.58;3.28;;;10.20;99.90;;;;;;5034365;28;20198;-79
2023/03/23 02:01:42;;;;;;;3.45;3.20;;;10.20;99.90;;;;;;5034367;28;20218;-79
2023/03/23 02:04:12;;;;;;;5.35;3.33;;;10.20;99.90;;;;;;5034271;28;20227;-79
2023/03/23 02:06:40;;;;;;;4.25;3.70;;;10.20;99.90;;;;;;5034199;28;20242;-79
2023/03/23 02:09:07;;;;;;;4.47;3.25;;;10.20;99.90;;;;;;5033699;28;20202;-79
2023/03/23 02:11:34;;;;;;;3.72;3.42;;;10.10;99.90;;;;;;5033949;28;20214;-79
2023/03/23 02:14:02;;;;;;;5.28;4.15;;;10.10;99.90;;;;;;5034201;28;20194;-79
2023/03/23 02:16:35;;;;;;;3.55;3.25;;;10.10;99.90;;;;;;5034089;28;20206;-79
2023/03/23 02:19:20;;;;;;;4.30;3.70;;;10.10;99.90;;;;;;5033376;28;20202;-77
2023/03/23 02:22:14;;;;;;;24.38;3.75;;;10.10;99.90;;;;;;5033904;28;20222;-79
2023/03/23 02:24:59;;;;;;;4.55;2.97;;;10.10;99.90;;;;;;5032094;28;20292;-79
2023/03/23 02:27:53;;;;;;;3.20;2.90;;;10.10;99.90;;;;;;5032715;28;20198;-78
2023/03/23 02:30:38;;;;;;;3.97;3.67;;;10.00;99.90;;;;;;5033395;28;20318;-78
2023/03/23 02:33:34;;;;;;;4.97;4.45;;;10.00;99.90;;;;;;5033501;28;20194;-77
2023/03/23 02:36:05;;;;;;;7.15;4.07;;;10.00;99.90;;;;;;5023920;28;20233;-77
2023/03/23 02:38:36;;;;;;;4.43;4.03;;;10.00;99.90;;;;;;5032164;28;20211;-78
2023/03/23 02:41:04;;;;;;;15.00;4.13;;;9.90;99.90;;;;;;5033473;28;20253;-77
2023/03/23 02:43:36;;;;;;;3.78;3.47;;;9.90;99.90;;;;;;5033337;28;20222;-77
2023/03/23 02:46:08;;;;;;;4.97;3.85;;;9.80;99.90;;;;;;5033516;28;20253;-77
2023/03/23 02:48:39;;;;;;;4.55;4.15;;;9.80;99.90;;;;;;5033080;28;20340;-77
2023/03/23 02:51:08;;;;;;;5.38;4.38;;;9.80;99.90;;;;;;5033043;28;20223;-77
2023/03/23 02:53:40;;;;;;;4.18;3.50;;;9.80;99.90;;;;;;5033123;28;20226;-77
2023/03/23 02:56:09;;;;;;;4.00;3.60;;;9.80;99.90;;;;;;5032700;28;20207;-77
2023/03/23 02:58:37;;;;;;;3.17;2.88;;;9.80;99.90;;;;;;5032357;28;20203;-77
2023/03/23 03:01:41;;;;;;;3.25;2.92;;;9.80;99.90;;;;;;5033462;28;20226;-77
2023/03/23 03:04:13;;;;;;;3.50;3.20;;;9.80;99.90;;;;;;5033069;28;20239;-77
2023/03/23 03:06:51;;;;;;;3.05;2.78;;;9.80;99.90;;;;;;5032947;28;20198;-78
2023/03/23 03:09:26;;;;;;;3.92;3.53;;;9.70;99.90;;;;;;5032912;28;20266;-79
2023/03/23 03:12:00;;;;;;;7.93;3.95;;;9.70;99.90;;;;;;5033277;28;20224;-79
2023/03/23 03:14:32;;;;;;;3.72;3.35;;;9.60;99.90;;;;;;5032479;28;20234;-79
2023/03/23 03:17:10;;;;;;;3.78;3.28;;;9.60;99.90;;;;;;5032548;28;20205;-83
2023/03/23 03:19:43;;;;;;;5.15;3.40;;;9.60;99.90;;;;;;5033092;28;20301;-83
2023/03/23 03:22:11;;;;;;;3.92;3.58;;;9.50;99.90;;;;;;5033017;28;20202;-83
2023/03/23 03:24:40;;;;;;;7.05;3.97;;;9.50;99.90;;;;;;5032468;28;20277;-83
2023/03/23 03:27:14;;;;;;;3.63;3.33;;;9.50;99.90;;;;;;5032029;28;20235;-83
2023/03/23 03:29:43;;;;;;;4.07;3.65;;;9.40;99.90;;;;;;5032410;28;20247;-83
2023/03/23 03:32:14;;;;;;;5.43;3.80;;;9.50;99.90;;;;;;5032856;28;20211;-83
2023/03/23 03:34:42;;;;;;;3.85;3.50;;;9.40;99.90;;;;;;5032454;28;20290;-83
2023/03/23 03:37:11;;;;;;;9.10;3.40;;;9.40;99.90;;;;;;5031700;28;20300;-83
2023/03/23 03:39:39;;;;;;;6.57;3.42;;;9.40;99.90;;;;;;5031099;28;20252;-84
2023/03/23 03:42:07;;;;;;;6.70;3.45;;;9.50;99.90;;;;;;5032005;28;20286;-83
2023/03/23 03:44:37;;;;;;;3.15;2.80;;;9.50;99.90;;;;;;5032093;28;20250;-79
2023/03/23 03:47:04;;;;;;;4.18;3.78;;;9.50;99.90;;;;;;5031803;28;20205;-79
2023/03/23 03:49:31;;;;;;;3.42;3.13;;;9.50;99.90;;;;;;5032184;28;20213;-79
2023/03/23 03:52:00;;;;;;;3.00;2.80;;;9.50;99.90;;;;;;5032412;28;20237;-79
2023/03/23 03:54:27;;;;;;;3.08;2.88;;;9.50;99.90;;;;;;5032072;28;20255;-79
2023/03/23 03:56:57;;;;;;;4.85;4.00;;;9.40;99.90;;;;;;5031627;28;20211;-79
2023/03/23 03:59:27;;;;;;;5.07;3.33;;;9.40;99.90;;;;;;5032159;28;20204;-79
2023/03/23 04:01:54;;;;;;;3.15;2.78;;;9.40;99.90;;;;;;5032149;28;20224;-83
2023/03/23 04:04:22;;;;;;;3.88;3.58;;;9.40;99.90;;;;;;5031740;28;20233;-83
2023/03/23 04:06:50;;;;;;;4.15;3.42;;;9.40;99.90;;;;;;5031113;28;20211;-83
2023/03/23 04:09:19;;;;;;;4.80;3.92;;;9.40;99.90;;;;;;5031715;28;20217;-79
2023/03/23 04:11:46;;;;;;;3.85;3.28;;;9.40;99.90;;;;;;5032197;28;20236;-78
2023/03/23 04:14:13;;;;;;;4.53;2.95;;;9.40;99.90;;;;;;5031298;28;20211;-77
2023/03/23 04:16:43;;;;;;;3.55;3.22;;;9.40;99.90;;;;;;5031352;28;20198;-77
2023/03/23 04:19:12;;;;;;;3.97;3.22;;;9.40;99.90;;;;;;5031754;28;20203;-78
2023/03/23 04:21:40;;;;;;;4.10;3.30;;;9.40;99.90;;;;;;5031005;28;20229;-77
2023/03/23 04:24:07;;;;;;;3.63;3.33;;;9.40;99.90;;;;;;5031951;28;20258;-77
2023/03/23 04:26:36;;;;;;;3.03;2.80;;;9.30;99.90;;;;;;5031388;28;20203;-77
2023/03/23 04:29:05;;;;;;;3.95;3.55;;;9.30;99.90;;;;;;5031125;28;20227;-77
2023/03/23 04:31:34;;;;;;;3.40;3.00;;;9.30;99.90;;;;;;5031443;28;20277;-77
2023/03/23 04:34:01;;;;;;;4.20;3.45;;;9.30;99.90;;;;;;5031569;28;20221;-77
2023/03/23 04:36:29;;;;;;;6.00;3.88;;;9.30;99.90;;;;;;5031282;28;20293;-77
2023/03/23 04:38:57;;;;;;;4.07;3.67;;;9.30;99.90;;;;;;5029901;28;20224;-77
2023/03/23 04:41:25;;;;;;;3.10;2.80;;;9.30;99.90;;;;;;5031399;28;20225;-77
2023/03/23 04:43:54;;;;;;;3.58;3.28;;;9.30;99.90;;;;;;5031182;28;20217;-77
2023/03/23 04:46:21;;;;;;;3.67;3.38;;;9.20;99.90;;;;;;5031305;28;20212;-78
2023/03/23 04:48:49;;;;;;;3.90;3.45;;;9.20;99.90;;;;;;5030842;28;20291;-77
2023/03/23 04:51:16;;;;;;;4.20;3.33;;;9.20;99.90;;;;;;5031234;28;20322;-77
2023/03/23 04:53:43;;;;;;;3.50;3.22;;;9.20;99.90;;;;;;5031487;28;20222;-77
2023/03/23 04:56:13;;;;;;;4.63;2.97;;;9.20;99.90;;;;;;5031049;28;20203;-77
2023/03/23 04:58:40;;;;;;;3.05;2.75;;;9.20;99.90;;;;;;5030708;28;20207;-78
2023/03/23 05:01:09;;;;;;;3.97;3.58;;;9.20;99.90;;;;;;5031123;28;20222;-78
2023/03/23 05:03:36;;;;;;;3.78;3.40;;;9.20;99.90;;;;;;5031144;28;20301;-77
2023/03/23 05:06:03;;;;;;;3.75;3.15;;;9.20;99.90;;;;;;5031253;28;20289;-82
2023/03/23 05:08:31;;;;;;;2.97;2.70;;;9.10;99.90;;;;;;5030657;28;20230;-81
2023/03/23 05:11:02;;;;;;;3.55;3.20;;;9.10;99.90;;;;;;5031028;28;20242;-82
2023/03/23 05:13:29;;;;;;;3.55;3.22;;;9.10;99.90;;;;;;5031119;28;20224;-82
2023/03/23 05:15:56;;;;;;;3.67;3.38;;;9.10;99.90;;;;;;5030614;28;20207;-77
2023/03/23 05:18:26;;;;;;;3.88;3.47;;;9.20;99.90;;;;;;5031239;28;20198;-77
2023/03/23 05:20:53;;;;;;;6.18;4.63;;;9.20;99.90;;;;;;5034503;28;20258;-77
2023/03/23 05:23:24;;;;;;;5.05;4.15;;;9.20;99.90;;;;;;5034987;28;20209;-77
2023/03/23 05:25:54;;;;;;;4.72;3.33;;;9.20;99.90;;;;;;5034578;28;20229;-77
2023/03/23 05:28:22;;;;;;;5.28;4.00;;;9.20;99.90;;;;;;5034277;28;20221;-77
2023/03/23 05:30:49;;;;;;;4.80;4.22;;;9.20;99.90;;;;;;5034704;28;20225;-77
2023/03/23 05:33:16;;;;;;;4.55;4.13;;;9.20;99.90;;;;;;5034497;28;20279;-77
2023/03/23 05:35:48;;;;;;;7.18;4.43;;;9.20;99.90;;;;;;5034848;28;20241;-77
2023/03/23 05:38:15;;;;;;;4.20;3.42;;;9.30;99.90;;;;;;5032964;28;20241;-81
2023/03/23 05:40:43;;;;;;;3.72;3.42;;;9.30;99.90;;;;;;5034706;28;20221;-81
2023/03/23 05:43:11;;;;;;;6.40;3.65;;;9.30;99.90;;;;;;5034666;28;20198;-81
2023/03/23 05:45:38;;;;;;;3.20;2.90;;;9.30;99.90;;;;;;5034122;28;20248;-81
2023/03/23 05:48:05;;;;;;;3.78;3.13;;;9.30;99.90;;;;;;5033774;28;20293;-81
2023/03/23 05:50:33;;;;;;;2.88;2.67;;;9.30;99.90;;;;;;5034061;28;20227;-82
2023/03/23 05:53:04;;;;;;;3.35;3.05;;;9.40;99.90;;;;;;5034224;28;20194;-82
2023/03/23 05:55:31;;;;;;;3.63;2.95;;;9.40;99.90;;;;;;5034336;28;20338;-82
2023/03/23 05:57:59;;;;;;;5.38;4.38;;;9.40;99.90;;;;;;5033766;28;20226;-81
2023/03/23 06:00:29;;;;;;;4.57;3.95;;;9.50;99.90;;;;;;5034146;28;20224;-82
2023/03/23 06:02:57;;;;;;;5.15;3.83;;;9.50;99.90;;;;;;5034160;28;20296;-82
2023/03/23 06:05:25;;;;;;;3.95;3.65;;;9.60;99.90;;;;;;5034232;28;20231;-82
2023/03/23 06:07:53;;;;;;;6.03;4.03;;;9.60;99.90;;;;;;5034181;28;20286;-82
2023/03/23 06:10:23;;;;;;;4.32;4.03;;;9.70;99.90;;;;;;5033979;28;20311;-82
2023/03/23 06:12:51;;;;;;;4.72;3.95;;;9.70;99.90;;;;;;5034168;28;20211;-82
2023/03/23 06:15:19;;;;;;;6.05;4.35;;;9.70;99.90;;;;;;5033623;28;20263;-82
2023/03/23 06:17:47;;;;;;;6.20;4.75;;;9.70;99.90;;;;;;5033497;28;20199;-82
2023/03/23 06:20:14;;;;;;;7.53;5.90;;;9.80;99.90;;;;;;5034186;28;20236;-77
2023/03/23 06:22:42;;;;;;;11.90;5.57;;;9.80;99.90;;;;;;5033906;28;20244;-78
2023/03/23 06:25:12;;;;;;;6.03;4.38;;;9.90;99.90;;;;;;5033460;28;20223;-78
2023/03/23 06:27:41;;;;;;;18.83;4.00;;;9.90;99.90;;;;;;5032944;28;20253;-78
2023/03/23 06:30:09;;;;;;;3.90;3.60;;;9.90;99.90;;;;;;5033219;28;20267;-78
2023/03/23 06:32:36;;;;;;;3.88;3.58;;;10.00;99.90;;;;;;5033318;28;20244;-78
2023/03/23 06:35:04;;;;;;;5.93;4.10;;;10.00;99.90;;;;;;5034158;28;20211;-78
2023/03/23 06:37:31;;;;;;;5.20;4.68;;;10.00;99.90;;;;;;5033125;28;20235;-78
2023/03/23 06:39:59;;;;;;;4.53;4.13;;;10.00;99.90;;;;;;5032547;28;20264;-78
2023/03/23 06:42:26;;;;;;;4.45;4.15;;;10.10;99.90;;;;;;5033647;28;20209;-78
2023/03/23 06:44:56;;;;;;;16.85;4.10;;;10.10;99.90;;;;;;5033221;28;20219;-78
2023/03/23 06:47:24;;;;;;;6.60;5.10;;;10.20;99.90;;;;;;5033167;28;20202;-77
2023/03/23 06:49:51;;;;;;;4.53;4.03;;;10.30;99.90;;;;;;5033098;28;20282;-78
2023/03/23 06:52:18;;;;;;;4.80;4.40;;;10.30;99.90;;;;;;5033068;28;20221;-78
2023/03/23 06:54:45;;;;;;;4.47;4.00;;;10.40;99.90;;;;;;5033299;28;20256;-78
2023/03/23 06:57:12;;;;;;;5.95;5.10;;;10.60;99.90;;;;;;5032687;28;20250;-77
2023/03/23 06:59:40;;;;;;;4.50;4.10;;;10.70;99.90;;;;;;5033030;28;20288;-77
2023/03/23 07:02:09;;;;;;;4.43;4.10;;;10.80;99.90;;;;;;5033330;28;20217;-77
2023/03/23 07:04:37;;;;;;;4.57;4.18;;;10.90;99.90;;;;;;5032894;28;20265;-77
2023/03/23 07:07:04;;;;;;;6.72;5.38;;;11.00;99.90;;;;;;5032463;28;20211;-77
2023/03/23 07:09:32;;;;;;;6.63;4.30;;;11.10;99.90;;;;;;5032927;28;20213;-77
2023/03/23 07:11:59;;;;;;;4.65;4.25;;;11.20;99.90;;;;;;5032719;28;20238;-77
2023/03/23 07:14:26;;;;;;;6.32;5.68;;;11.30;99.90;;;;;;5033269;28;20204;-77
2023/03/23 07:16:54;;;;;;;4.20;3.85;;;11.40;99.90;;;;;;5032378;28;20296;-77
2023/03/23 07:19:22;;;;;;;4.97;4.43;;;11.40;99.90;;;;;;5032583;28;20213;-78
2023/03/23 07:21:50;;;;;;;5.45;4.95;;;11.50;99.90;;;;;;5033097;28;20249;-77
2023/03/23 07:24:18;;;;;;;8.60;5.28;;;11.60;99.90;;;;;;5033024;28;20216;-77
2023/03/23 07:26:45;;;;;;;6.05;5.15;;;11.60;99.90;;;;;;5032437;28;20252;-78
2023/03/23 07:29:13;;;;;;;5.50;4.95;;;11.70;99.90;;;;;;5032722;28;20230;-78
2023/03/23 07:31:40;;;;;;;5.30;4.65;;;11.70;99.90;;;;;;5032632;28;20241;-78
2023/03/23 07:34:07;;;;;;;6.35;4.93;;;11.80;99.90;;;;;;5032528;28;20221;-78
2023/03/23 07:36:37;;;;;;;8.38;5.43;;;11.90;99.90;;;;;;5032913;28;20210;-78
2023/03/23 07:39:06;;;;;;;4.38;4.00;;;11.90;99.90;;;;;;5031240;28;20213;-78
2023/03/23 07:41:33;;;;;;;6.07;4.78;;;12.00;99.90;;;;;;5032313;28;20241;-78
2023/03/23 07:44:00;;;;;;;4.60;4.20;;;12.10;99.90;;;;;;5032470;28;20301;-78
2023/03/23 07:46:27;;;;;;;7.43;5.05;;;12.30;99.90;;;;;;5031854;28;20240;-78
2023/03/23 07:48:55;;;;;;;5.63;4.60;;;12.40;99.90;;;;;;5031771;28;20213;-78
2023/03/23 07:51:22;;;;;;;15.82;5.03;;;12.40;99.90;;;;;;5032474;28;20324;-78
2023/03/23 07:53:51;;;;;;;4.15;3.75;;;12.60;99.90;;;;;;5032568;28;20218;-78
2023/03/23 07:56:20;;;;;;;4.95;4.20;;;12.70;99.90;;;;;;5032288;28;20213;-78
2023/03/23 07:58:47;;;;;;;5.32;4.20;;;12.80;99.90;;;;;;5031421;28;20260;-78
2023/03/23 08:01:15;;;;;;;9.68;5.25;;;12.90;99.90;;;;;;5032288;28;20318;-77
2023/03/23 08:03:42;;;;;;;5.05;4.57;;;13.00;99.90;;;;;;5032329;28;20244;-77
2023/03/23 08:06:09;;;;;;;4.78;4.38;;;13.10;99.90;;;;;;5032013;28;20268;-77
2023/03/23 08:08:37;;;;;;;4.18;3.83;;;13.10;99.90;;;;;;5031578;28;20300;-77
2023/03/23 08:11:06;;;;;;;5.60;4.90;;;13.20;99.90;;;;;;5031900;28;20239;-77
2023/03/23 08:13:35;;;;;;;4.28;3.90;;;13.30;99.90;;;;;;5032128;28;20253;-78
2023/03/23 08:16:03;;;;;;;4.72;4.28;;;13.40;99.90;;;;;;5031797;28;20220;-78
2023/03/23 08:18:31;;;;;;;6.35;5.30;;;13.50;99.90;;;;;;5031559;28;20256;-78
2023/03/23 08:20:59;;;;;;;6.03;5.07;;;13.60;99.90;;;;;;5031969;28;20227;-77
2023/03/23 08:23:26;;;;;;;6.35;5.75;;;13.80;99.90;;;;;;5032074;28;20197;-78
2023/03/23 08:25:53;;;;;;;6.97;6.13;;;13.80;99.90;;;;;;5031345;28;20228;-77
2023/03/23 08:28:22;;;;;;;6.65;4.95;;;13.80;99.90;;;;;;5031034;28;20200;-78
2023/03/23 08:30:49;;;;;;;6.20;5.40;;;13.80;99.90;;;;;;5031913;28;20223;-77
2023/03/23 08:33:17;;;;;;;6.88;5.70;;;13.80;99.90;;;;;;5031742;28;20229;-78
2023/03/23 08:35:45;;;;;;;11.27;5.38;;;13.80;99.90;;;;;;5031388;28;20237;-78
2023/03/23 08:38:12;;;;;;;5.45;5.05;;;14.00;99.90;;;;;;5030513;28;20204;-78
2023/03/23 08:40:40;;;;;;;9.10;6.47;;;14.00;99.90;;;;;;5031594;28;20218;-78
2023/03/23 08:43:07;;;;;;;6.80;6.10;;;14.00;99.90;;;;;;5031176;28;20200;-78
2023/03/23 08:45:36;;;;;;;7.03;5.43;;;14.00;99.90;;;;;;5031609;28;20310;-77
2023/03/23 08:48:03;;;;;;;6.35;5.45;;;14.20;99.90;;;;;;5030943;28;20213;-77
2023/03/23 08:50:31;;;;;;;6.60;5.93;;;14.30;99.90;;;;;;5031394;28;20324;-78
2023/03/23 08:52:59;;;;;;;7.82;6.50;;;14.60;99.90;;;;;;5031180;28;20229;-78
2023/03/23 08:55:26;;;;;;;8.18;6.38;;;15.10;99.90;;;;;;5034349;28;20215;-78
2023/03/23 08:57:53;;;;;;;11.65;7.28;;;15.70;99.90;;;;;;5035063;28;20261;-78
2023/03/23 09:00:24;;;;;;;7.03;6.32;;;16.50;99.90;;;;;;5035529;28;20237;-78
2023/03/23 09:02:54;;;;;;;10.52;6.30;;;17.20;99.90;;;;;;5035245;28;20237;-78
2023/03/23 09:05:24;;;;;;;;;;;18.10;99.90;;;;;;5036174;28;20111;-78
2023/03/23 09:07:52;;;;;;;11.50;6.80;;;19.20;99.90;;;;;;5035083;28;20216;-78
2023/03/23 09:10:19;;;;;;;;;;;20.00;99.90;;;;;;5035290;28;20313;-78
2023/03/23 09:12:47;;;;;;;;;;;20.50;99.40;;;;;;5035712;28;19972;-78
2023/03/23 09:15:15;;;;;;;;;;;21.20;98.70;;;;;;5035105;28;19929;-78
2023/03/23 09:17:43;;;;;;;;;;;21.80;96.60;;;;;;5035095;28;19990;-78
2023/03/23 09:20:12;;;;;;;;;;;22.30;94.90;;;;;;5035206;28;20423;-78
2023/03/23 09:22:40;;;;;;;;;;;22.70;94.50;;;;;;5035300;28;19925;-78
2023/03/23 09:25:07;;;;;;;;;;;23.10;92.70;;;;;;5035253;28;19921;-78
2023/03/23 09:27:36;;;;;;;;;;;23.70;91.60;;;;;;5034810;28;19967;-78
2023/03/23 09:30:05;;;;;;;;;;;24.40;90.10;;;;;;5034778;28;19928;-78
2023/03/23 09:32:33;;;;;;;;;;;25.00;87.80;;;;;;5035737;28;19921;-78
2023/03/23 09:35:00;;;;;;;6.93;6.20;;;25.30;84.10;;;;;;5034551;28;20436;-78
2023/03/23 09:37:29;;;;;;;;;;;24.80;82.90;;;;;;5034843;28;19925;-78
2023/03/23 09:39:56;;;;;;;;;;;25.00;81.20;;;;;;5034519;28;19939;-78
2023/03/23 09:42:32;;;;;;;;;;;24.90;81.20;;;;;;5035529;28;19979;-78
2023/03/23 09:45:06;;;;;;;;;;;24.80;80.60;;;;;;5035006;28;20019;-78
2023/03/23 09:47:36;;;;;;;;;;;24.30;82.00;;;;;;5034057;28;19925;-76
2023/03/23 09:50:06;;;;;;;;;;;24.20;80.90;;;;;;5034639;28;20016;-76
2023/03/23 09:52:38;;;;;;;;;;;24.70;79.90;;;;;;5034844;28;19931;-78
2023/03/23 09:55:05;;;;;;;;;;;24.90;79.20;;;;;;5035339;28;20079;-78
2023/03/23 09:57:36;;;;;;;;;;;24.80;78.40;;;;;;5034323;28;19983;-75
2023/03/23 10:00:05;;;;;;;;;;;25.30;78.40;;;;;;5034657;28;19925;-75
2023/03/23 10:02:36;;;;;;;;;;;25.40;77.00;;;;;;5034890;28;19932;-78
2023/03/23 10:05:13;;;;;;;;;;;25.50;78.10;;;;;;5034561;28;20075;-75
2023/03/23 10:07:42;;;;;;;;;;;25.80;76.40;;;;;;5034416;28;19980;-76
2023/03/23 10:10:13;;;;;;;;;;;25.70;74.90;;;;;;5034428;28;20007;-76
2023/03/23 10:12:41;;;;;;;;;;;25.10;74.70;;;;;;5034451;28;19932;-76
2023/03/23 10:15:18;;;;;;;;;;;24.50;74.80;;;;;;5034269;28;19988;-76
2023/03/23 10:17:47;;;;;;;;;;;24.50;75.90;;;;;;5033477;28;19933;-76
2023/03/23 10:20:19;;;;;;;;;;;24.50;74.10;;;;;;5034510;28;19951;-76
2023/03/23 10:22:51;;;;;;;;;;;24.30;75.30;;;;;;5034809;28;19925;-76
2023/03/23 10:25:20;;;;;;;;;;;23.90;75.90;;;;;;5034671;28;19968;-76
2023/03/23 10:27:50;;;;;;;;;;;23.70;76.90;;;;;;5033398;28;19968;-76
2023/03/23 10:30:20;;;;;;;;;;;23.80;78.10;;;;;;5034211;28;19931;-76
2023/03/23 10:32:50;;;;;;;;;;;24.20;76.30;;;;;;5034085;28;19925;-76
2023/03/23 10:35:19;;;;;;;;;;;24.20;76.40;;;;;;5034076;28;19925;-76
2023/03/23 10:37:49;;;;;;;;;;;24.20;76.40;;;;;;5033659;28;19925;-76
2023/03/23 10:40:19;;;;;;;;;;;24.30;75.60;;;;;;5033800;28;19935;-76
2023/03/23 10:42:46;;;;;;;;;;;24.30;75.90;;;;;;5034178;28;19925;-75
2023/03/23 10:45:17;;;;;;;;;;;24.30;76.70;;;;;;5034015;28;19929;-76
2023/03/23 10:47:46;;;;;;;;;;;24.50;75.80;;;;;;5032892;28;19956;-76
2023/03/23 10:50:15;;;;;;;;;;;24.60;76.10;;;;;;5033760;28;19963;-78
2023/03/23 10:52:42;;;;;;;;;;;24.80;76.40;;;;;;5033700;28;19926;-77
2023/03/23 10:55:13;;;;;;;;;;;24.90;76.40;;;;;;5033744;28;20003;-77
2023/03/23 10:57:41;;;;;;;;;;;25.20;75.80;;;;;;5033575;28;20024;-77
2023/03/23 11:00:09;;;;;;;;;;;25.00;74.70;;;;;;5033487;28;19925;-77
2023/03/23 11:02:41;;;;;;;;;;;25.10;74.10;;;;;;5033434;28;19925;-77
2023/03/23 11:05:16;;;;;;;;;;;25.20;74.30;;;;;;5033388;28;19976;-77
2023/03/23 11:07:48;;;;;;;;;;;25.10;74.00;;;;;;5033186;28;19925;-77
2023/03/23 11:10:21;;;;;;;;;;;25.50;73.50;;;;;;5033721;28;19925;-77
2023/03/23 11:12:48;;;;;;;;;;;25.50;74.50;;;;;;5033549;28;19948;-77
2023/03/23 11:15:39;;;;;;;;;;;25.90;73.00;;;;;;5033237;28;19984;-77
2023/03/23 11:18:09;;;;;;;;;;;25.80;71.60;;;;;;5027884;28;19971;-77
2023/03/23 11:20:37;;;;;;;;;;;25.70;72.40;;;;;;5034407;28;19925;-77
2023/03/23 11:23:09;;;;;;;;;;;26.00;73.10;;;;;;5033470;28;19935;-77
2023/03/23 11:25:48;;;;;;;;;;;26.20;72.80;;;;;;5033231;28;19925;-77
2023/03/23 11:28:15;;;;;;;;;;;26.70;72.20;;;;;;5032494;28;19979;-77
2023/03/23 11:30:42;;;;;;;;;;;27.20;69.80;;;;;;5032682;28;19971;-77
2023/03/23 11:33:09;;;;;;;;;;;27.40;68.90;;;;;;5033530;28;19929;-77
2023/03/23 11:35:36;;;;;;;;;;;27.50;67.30;;;;;;5033483;28;19925;-77
2023/03/23 11:38:06;;;;;;;;;;;27.00;66.70;;;;;;5031646;28;20037;-77
2023/03/23 11:40:35;;;;;;;;;;;26.60;66.20;;;;;;5033044;28;19965;-77
2023/03/23 11:43:09;;;;;;;;;;;26.30;66.40;;;;;;5032623;28;19991;-76
2023/03/23 11:45:37;;;;;;;;;;;25.70;67.40;;;;;;5032869;28;19998;-77
2023/03/23 11:48:08;;;;;;;;;;;25.40;68.80;;;;;;5032547;28;20016;-76
2023/03/23 11:50:37;;;;;;;;;;;25.10;69.10;;;;;;5032689;28;19960;-77
2023/03/23 11:53:16;;;;;;;;;;;24.80;68.90;;;;;;5032692;28;19949;-76
2023/03/23 11:55:55;;;;;;;;;;;24.80;69.40;;;;;;5032482;28;19947;-76
2023/03/23 11:58:23;;;;;;;;;;;24.70;69.30;;;;;;5031876;28;19945;-76
2023/03/23 12:00:52;;;;;;;;;;;24.30;68.90;;;;;;5032765;28;19959;-76
2023/03/23 12:03:40;;;;;;;;;;;23.90;69.30;;;;;;5032993;28;19949;-76
2023/03/23 12:06:08;;;;;;;;;;;23.80;70.90;;;;;;5032432;28;20006;-76
2023/03/23 12:08:44;;;;;;;;;;;23.70;70.30;;;;;;5031902;28;19941;-77
2023/03/23 12:11:16;;;;;;;;;;;23.50;70.80;;;;;;5032470;28;19962;-76
2023/03/23 12:13:55;;;;;;;;;;;23.40;70.80;;;;;;5032500;28;19953;-81
2023/03/23 12:16:27;;;;;;;;;;;23.30;71.50;;;;;;5032274;28;19948;-81
2023/03/23 12:18:59;;;;;;;;;;;23.30;72.10;;;;;;5031972;28;19940;-81
2023/03/23 12:21:32;;;;;;;;;;;23.30;73.20;;;;;;5032015;28;19982;-81
2023/03/23 12:24:03;;;;;;;;;;;23.30;72.40;;;;;;5032067;28;19952;-81
2023/03/23 12:26:31;;;;;;;;;;;23.30;73.40;;;;;;5032232;28;19966;-81
2023/03/23 12:29:17;;;;;;;;;;;23.30;74.10;;;;;;5030656;28;19951;-81
2023/03/23 12:31:49;;;;;;;;;;;23.40;73.30;;;;;;5031730;28;20062;-83
2023/03/23 12:34:21;;;;;;;;;;;23.50;71.90;;;;;;5031999;28;20021;-82
2023/03/23 12:36:54;;;;;;;;;;;23.60;72.10;;;;;;5031605;28;19943;-83
2023/03/23 12:39:45;;;;;;;;;;;23.70;72.40;;;;;;5031049;28;19940;-82
2023/03/23 12:42:16;;;;;;;;;;;24.10;72.50;;;;;;4996961;28;20037;-81
2023/03/23 12:44:45;;;;;;;;;;;24.40;71.80;;;;;;5031860;28;19939;-83
2023/03/23 12:47:20;;;;;;;;;;;24.60;71.20;;;;;;5031013;28;19961;-83
2023/03/23 12:49:50;;;;;;;;;;;24.20;71.00;;;;;;5031740;28;19943;-83
2023/03/23 12:52:20;;;;;;;;;;;23.80;71.20;;;;;;5031613;28;19943;-83
2023/03/23 12:54:51;;;;;;;;;;;23.60;71.90;;;;;;5031964;28;19945;-83
2023/03/23 12:57:21;;;;;;;;;;;23.50;71.50;;;;;;5031548;28;19948;-82
2023/03/23 12:59:50;;;;;;;;;;;23.60;71.60;;;;;;5031788;28;19944;-82
2023/03/23 13:02:21;;;;;;;;;;;23.90;72.10;;;;;;5031665;28;19955;-82
2023/03/23 13:04:51;;;;;;;;;;;24.30;71.60;;;;;;5031543;28;19970;-82
2023/03/23 13:07:20;;;;;;;;;;;24.70;71.20;;;;;;5031116;28;19964;-82
2023/03/23 13:09:51;;;;;;;;;;;25.00;70.50;;;;;;5031754;28;19952;-82
2023/03/23 13:12:19;;;;;;;;;;;25.40;70.60;;;;;;5032000;28;20031;-83
2023/03/23 13:14:49;;;;;;;;;;;25.70;70.80;;;;;;5032184;28;19947;-82
2023/03/23 13:17:23;;;;;;;;;;;26.10;70.00;;;;;;5031024;28;19940;-83
2023/03/23 13:20:12;;;;;;;;;;;26.30;69.70;;;;;;5031371;28;20032;-81
2023/03/23 13:22:43;;;;;;;;;;;26.30;69.30;;;;;;5015376;28;19943;-83
2023/03/23 13:25:14;;;;;;;;;;;26.30;69.10;;;;;;5031665;28;19947;-83
2023/03/23 13:27:42;;;;;;;;;;;26.00;67.80;;;;;;5030911;28;19981;-83
2023/03/23 13:30:24;;;;;;;;;;;26.20;68.30;;;;;;5031452;28;19971;-81
2023/03/23 13:32:53;;;;;;;;;;;26.10;67.40;;;;;;5031331;28;19941;-81